Time;durP1;ratioP1;P1;durP2;ratioP2;P2;SDS_P1;SDS_P2;PMS_P1;PMS_P2;Temp;Humidity;BMP_temperature;BMP_pressure;BME280_temperature;BME280_humidity;BME280_pressure;Samples;Min_cycle;Max_cycle;Signal;HPM_P1;HPM_P2
2023/07/24 00:01:17;;;;;;;3.83;3.20;;;17.20;99.90;;;;;;4810815;29;20227;-88
2023/07/24 00:03:43;;;;;;;4.87;4.00;;;17.10;99.90;;;;;;4826851;29;20215;-88
2023/07/24 00:06:09;;;;;;;4.90;4.37;;;17.20;99.90;;;;;;4810900;29;20477;-88
2023/07/24 00:08:35;;;;;;;4.67;3.50;;;17.10;99.90;;;;;;4827266;29;20394;-88
2023/07/24 00:11:02;;;;;;;4.67;3.57;;;17.00;99.90;;;;;;4826634;29;20268;-93
2023/07/24 00:13:28;;;;;;;6.03;4.10;;;16.90;99.90;;;;;;4827050;29;20188;-88
2023/07/24 00:15:54;;;;;;;5.23;4.07;;;16.90;99.90;;;;;;4810188;29;20450;-88
2023/07/24 00:18:19;;;;;;;5.40;4.33;;;16.90;99.90;;;;;;4810429;29;20668;-88
2023/07/24 00:20:45;;;;;;;4.97;4.03;;;16.80;99.90;;;;;;4826611;29;20209;-88
2023/07/24 00:23:11;;;;;;;5.80;5.03;;;16.80;99.90;;;;;;4810665;29;20258;-88
2023/07/24 00:25:37;;;;;;;5.67;4.47;;;16.80;99.90;;;;;;4810507;29;20182;-88
2023/07/24 00:28:02;;;;;;;8.50;4.87;;;16.80;99.90;;;;;;4826994;29;20430;-90
2023/07/24 00:30:28;;;;;;;5.00;4.47;;;16.80;99.90;;;;;;4809588;29;20791;-87
2023/07/24 00:32:54;;;;;;;5.50;4.60;;;16.80;99.90;;;;;;4826672;29;20181;-88
2023/07/24 00:35:19;;;;;;;5.90;5.10;;;16.80;99.90;;;;;;4826648;29;20573;-88
2023/07/24 00:37:45;;;;;;;6.20;4.67;;;16.80;99.90;;;;;;4810449;29;20281;-88
2023/07/24 00:40:11;;;;;;;7.83;5.50;;;16.90;99.90;;;;;;4826187;29;20256;-88
2023/07/24 00:42:37;;;;;;;6.33;4.77;;;16.90;99.90;;;;;;4795228;29;20201;-88
2023/07/24 00:45:02;;;;;;;7.13;5.43;;;16.90;99.90;;;;;;4794852;29;20865;-88
2023/07/24 00:47:28;;;;;;;9.37;4.83;;;16.90;99.90;;;;;;4826238;29;20223;-88
2023/07/24 00:49:55;;;;;;;7.97;5.77;;;16.90;99.90;;;;;;4810292;29;20446;-88
2023/07/24 00:52:21;;;;;;;6.87;5.93;;;16.90;99.90;;;;;;4826406;29;20579;-88
2023/07/24 00:54:47;;;;;;;8.03;5.27;;;16.90;99.90;;;;;;4810426;29;20401;-88
2023/07/24 00:57:13;;;;;;;8.83;6.43;;;16.80;99.90;;;;;;4825911;29;20413;-88
2023/07/24 00:59:41;;;;;;;7.80;5.90;;;16.80;99.90;;;;;;4809957;29;20254;-89
2023/07/24 01:02:07;;;;;;;7.73;5.73;;;16.80;99.90;;;;;;4825933;29;20532;-88
2023/07/24 01:04:33;;;;;;;7.57;5.60;;;16.70;99.90;;;;;;4810141;29;20413;-88
2023/07/24 01:06:59;;;;;;;6.23;5.17;;;16.70;99.90;;;;;;4794542;29;20427;-88
2023/07/24 01:09:25;;;;;;;9.43;6.03;;;16.70;99.90;;;;;;4826114;29;20564;-89
2023/07/24 01:12:16;;;;;;;6.17;5.57;;;16.60;99.90;;;;;;4825879;29;20980;-88
2023/07/24 01:14:52;;;;;;;7.17;5.80;;;16.60;99.90;;;;;;4826116;29;20218;-89
2023/07/24 01:17:24;;;;;;;8.73;5.57;;;16.60;99.90;;;;;;4825990;29;20504;-89
2023/07/24 01:19:55;;;;;;;7.40;5.57;;;16.60;99.90;;;;;;4826228;29;20414;-89
2023/07/24 01:22:28;;;;;;;6.83;6.00;;;16.60;99.90;;;;;;4825965;29;20458;-90
2023/07/24 01:25:25;;;;;;;6.77;4.87;;;16.50;99.90;;;;;;4826021;29;20832;-89
2023/07/24 01:27:51;;;;;;;12.03;5.73;;;16.60;99.90;;;;;;4809679;29;20923;-89
2023/07/24 01:30:18;;;;;;;10.87;6.10;;;16.50;99.90;;;;;;4825605;29;20418;-89
2023/07/24 01:32:44;;;;;;;10.20;6.00;;;16.50;99.90;;;;;;4825487;29;20237;-89
2023/07/24 01:35:10;;;;;;;7.33;5.60;;;16.50;99.90;;;;;;4809304;29;20895;-89
2023/07/24 01:37:39;;;;;;;6.30;5.67;;;16.50;99.90;;;;;;4825797;29;20185;-89
2023/07/24 01:40:06;;;;;;;16.33;6.33;;;16.40;99.90;;;;;;4809299;29;20485;-89
2023/07/24 01:42:33;;;;;;;9.60;6.23;;;16.50;99.90;;;;;;4825292;29;20435;-89
2023/07/24 01:44:59;;;;;;;6.47;5.80;;;16.50;99.90;;;;;;4809276;29;20781;-89
2023/07/24 01:47:25;;;;;;;9.87;5.77;;;16.40;99.90;;;;;;4809219;29;20443;-89
2023/07/24 01:49:51;;;;;;;8.50;6.30;;;16.40;99.90;;;;;;4825875;29;20547;-89
2023/07/24 01:52:18;;;;;;;7.83;5.57;;;16.40;99.90;;;;;;4825678;29;20393;-89
2023/07/24 01:54:43;;;;;;;10.90;6.60;;;16.40;99.90;;;;;;4825927;29;20184;-89
2023/07/24 01:57:09;;;;;;;7.90;6.60;;;16.50;99.90;;;;;;4825822;29;20502;-89
2023/07/24 01:59:35;;;;;;;9.13;6.60;;;16.50;99.90;;;;;;4825735;29;20238;-89
2023/07/24 02:02:00;;;;;;;7.93;6.00;;;16.40;99.90;;;;;;4825542;29;20259;-88
2023/07/24 02:04:26;;;;;;;8.40;6.60;;;16.50;99.90;;;;;;4808840;29;20194;-88
2023/07/24 02:06:51;;;;;;;12.60;7.40;;;16.60;99.90;;;;;;4809124;29;20186;-88
2023/07/24 02:09:20;;;;;;;11.83;7.50;;;16.60;99.90;;;;;;4825253;29;20185;-89
2023/07/24 02:11:46;;;;;;;14.73;7.80;;;16.60;99.90;;;;;;4824917;29;20197;-89
2023/07/24 02:14:13;;;;;;;8.70;6.50;;;16.60;99.90;;;;;;4824447;29;20423;-89
2023/07/24 02:16:39;;;;;;;9.10;6.23;;;16.60;99.90;;;;;;4824622;29;20274;-87
2023/07/24 02:19:05;;;;;;;12.17;7.37;;;16.60;99.90;;;;;;4808338;29;20834;-87
2023/07/24 02:21:30;;;;;;;9.90;6.80;;;16.70;99.90;;;;;;4824335;29;20217;-87
2023/07/24 02:23:56;;;;;;;8.80;7.27;;;16.70;99.90;;;;;;4808126;29;20453;-88
2023/07/24 02:26:21;;;;;;;11.90;6.43;;;16.70;99.90;;;;;;4793093;29;20600;-88
2023/07/24 02:28:47;;;;;;;9.33;6.50;;;16.70;99.90;;;;;;4808383;29;20196;-89
2023/07/24 02:31:12;;;;;;;9.37;6.30;;;16.70;99.90;;;;;;4814168;29;20320;-89
2023/07/24 02:33:38;;;;;;;11.73;8.00;;;16.80;99.90;;;;;;4843046;29;20250;-88
2023/07/24 02:36:04;;;;;;;9.10;7.07;;;16.80;99.90;;;;;;4826654;29;20733;-88
2023/07/24 02:38:29;;;;;;;9.67;7.10;;;16.80;99.90;;;;;;4826770;29;20192;-88
2023/07/24 02:40:55;;;;;;;12.37;6.47;;;16.80;99.90;;;;;;4842781;29;20216;-88
2023/07/24 02:43:20;;;;;;;10.47;7.47;;;16.80;99.90;;;;;;4826383;29;20189;-88
2023/07/24 02:45:46;;;;;;;9.57;6.80;;;16.80;99.90;;;;;;4826286;29;20189;-88
2023/07/24 02:48:12;;;;;;;10.50;6.40;;;16.80;99.90;;;;;;4826470;29;20197;-88
2023/07/24 02:50:37;;;;;;;15.17;7.00;;;16.80;99.90;;;;;;4826313;29;20200;-88
2023/07/24 02:53:04;;;;;;;9.80;7.17;;;16.80;99.90;;;;;;4826918;29;20758;-87
2023/07/24 02:55:30;;;;;;;9.43;6.93;;;16.80;99.90;;;;;;4846276;29;20228;-88
2023/07/24 02:57:55;;;;;;;10.07;6.57;;;16.80;99.90;;;;;;4829718;29;20508;-88
2023/07/24 03:00:21;;;;;;;15.50;7.80;;;16.90;99.90;;;;;;4845811;29;20185;-88
2023/07/24 03:02:46;;;;;;;11.53;7.00;;;16.80;99.90;;;;;;4818182;29;20283;-88
2023/07/24 03:05:12;;;;;;;12.40;8.27;;;16.90;99.90;;;;;;4846413;29;20321;-88
2023/07/24 03:07:37;;;;;;;10.20;7.00;;;16.90;99.90;;;;;;4846269;29;20571;-88
2023/07/24 03:10:03;;;;;;;11.70;6.53;;;16.80;99.90;;;;;;4830716;29;20193;-88
2023/07/24 03:12:29;;;;;;;8.23;6.27;;;16.80;99.90;;;;;;4829762;29;20271;-88
2023/07/24 03:14:55;;;;;;;12.27;6.60;;;16.90;99.90;;;;;;4845940;29;20412;-88
2023/07/24 03:17:22;;;;;;;11.47;5.67;;;16.80;99.90;;;;;;4846414;29;20190;-88
2023/07/24 03:19:49;;;;;;;8.03;6.30;;;16.80;99.90;;;;;;4846334;29;20527;-88
2023/07/24 03:22:15;;;;;;;13.77;8.10;;;16.80;99.90;;;;;;4846394;29;20470;-89
2023/07/24 03:24:40;;;;;;;12.83;7.00;;;16.80;99.90;;;;;;4829599;29;20745;-88
2023/07/24 03:27:06;;;;;;;8.73;7.00;;;16.80;99.90;;;;;;4829328;29;20658;-88
2023/07/24 03:29:32;;;;;;;16.33;6.70;;;16.70;99.90;;;;;;4829657;29;20193;-88
2023/07/24 03:31:57;;;;;;;11.03;6.20;;;16.70;99.90;;;;;;4828944;29;20240;-88
2023/07/24 03:34:23;;;;;;;10.13;6.80;;;16.70;99.90;;;;;;4845761;29;20216;-88
2023/07/24 03:36:49;;;;;;;10.43;6.50;;;16.70;99.90;;;;;;4846109;29;20173;-88
2023/07/24 03:39:14;;;;;;;12.03;6.10;;;16.60;99.90;;;;;;4845531;29;20196;-88
2023/07/24 03:41:42;;;;;;;9.60;6.10;;;16.60;99.90;;;;;;4845841;29;20211;-88
2023/07/24 03:44:08;;;;;;;8.70;6.70;;;16.60;99.90;;;;;;4845693;29;20538;-89
2023/07/24 03:46:34;;;;;;;9.97;6.77;;;16.70;99.90;;;;;;4845827;29;20437;-88
2023/07/24 03:49:00;;;;;;;7.97;6.10;;;16.70;99.90;;;;;;4845618;29;20891;-88
2023/07/24 03:51:26;;;;;;;7.70;6.40;;;16.70;99.90;;;;;;4829051;29;20485;-88
2023/07/24 03:53:51;;;;;;;11.50;7.20;;;16.70;99.90;;;;;;4845188;29;20185;-88
2023/07/24 03:56:17;;;;;;;10.90;6.83;;;16.80;99.90;;;;;;4829133;29;20196;-88
2023/07/24 03:58:43;;;;;;;10.37;6.57;;;16.80;99.90;;;;;;4829380;29;20188;-88
2023/07/24 04:01:09;;;;;;;9.13;6.90;;;16.80;99.90;;;;;;4845180;29;20209;-88
2023/07/24 04:03:35;;;;;;;22.27;7.27;;;16.80;99.90;;;;;;4845386;29;20192;-88
2023/07/24 04:06:01;;;;;;;13.70;6.90;;;16.80;99.90;;;;;;4828614;29;20433;-88
2023/07/24 04:08:26;;;;;;;13.03;7.10;;;16.80;99.90;;;;;;4845274;29;20426;-88
2023/07/24 04:10:52;;;;;;;9.57;6.30;;;16.80;99.90;;;;;;4844943;29;20433;-88
2023/07/24 04:13:18;;;;;;;12.67;6.70;;;16.80;99.90;;;;;;4828586;29;20185;-88
2023/07/24 04:15:44;;;;;;;9.30;6.47;;;16.80;99.90;;;;;;4844951;29;20209;-88
2023/07/24 04:18:10;;;;;;;10.63;7.00;;;16.80;99.90;;;;;;4845382;29;20611;-88
2023/07/24 04:20:52;;;;;;;8.30;6.80;;;16.80;99.90;;;;;;4845087;29;20472;-88
2023/07/24 04:23:17;;;;;;;17.43;6.93;;;16.80;99.90;;;;;;4844842;29;20406;-89
2023/07/24 04:25:43;;;;;;;12.87;7.73;;;16.80;99.90;;;;;;4828249;29;20526;-88
2023/07/24 04:28:09;;;;;;;7.50;6.57;;;16.80;99.90;;;;;;4845541;29;20600;-88
2023/07/24 04:34:34;;;;;;;10.83;6.27;;;16.80;99.90;;;;;;4844645;29;20169;-89
2023/07/24 04:37:18;;;;;;;9.07;6.30;;;16.80;99.90;;;;;;4828472;29;20491;-87
2023/07/24 04:39:44;;;;;;;12.57;6.87;;;16.80;99.90;;;;;;4828445;29;20380;-88
2023/07/24 04:42:09;;;;;;;12.37;7.20;;;16.90;99.90;;;;;;4844741;29;20476;-88
2023/07/24 04:44:35;;;;;;;8.50;6.83;;;16.90;99.90;;;;;;4844565;29;20256;-88
2023/07/24 04:47:02;;;;;;;11.33;7.23;;;16.90;99.90;;;;;;4828508;29;20189;-88
2023/07/24 04:50:14;;;;;;;8.87;6.67;;;16.90;99.90;;;;;;4844998;29;20275;-88
2023/07/24 04:52:39;;;;;;;8.67;6.80;;;16.90;99.90;;;;;;4827826;29;20461;-88
2023/07/24 04:55:06;;;;;;;11.90;7.33;;;17.00;99.90;;;;;;4844338;29;20849;-88
2023/07/24 04:57:44;;;;;;;8.50;6.40;;;17.00;99.90;;;;;;4844477;29;20205;-88
2023/07/24 05:03:32;;;;;;;9.00;6.73;;;17.00;99.90;;;;;;4844014;29;20413;-89
2023/07/24 05:09:20;;;;;;;10.70;6.20;;;17.20;99.90;;;;;;4843726;29;20417;-90
2023/07/24 05:11:46;;;;;;;11.90;6.70;;;17.20;99.90;;;;;;4828342;29;20910;-88
2023/07/24 05:14:11;;;;;;;9.50;6.30;;;17.30;99.90;;;;;;4828289;29;20357;-88
2023/07/24 05:16:42;;;;;;;8.50;6.30;;;17.40;99.90;;;;;;4827351;29;20284;-89
2023/07/24 05:19:08;;;;;;;8.17;6.17;;;17.50;99.90;;;;;;4843776;29;20592;-88
2023/07/24 05:21:33;;;;;;;11.17;6.20;;;17.50;99.90;;;;;;4797258;29;20472;-89
2023/07/24 05:23:59;;;;;;;14.77;5.90;;;17.50;99.90;;;;;;4813031;29;20201;-89
2023/07/24 05:26:25;;;;;;;7.27;6.43;;;17.50;99.90;;;;;;4843948;29;20209;-88
2023/07/24 05:28:52;;;;;;;7.53;6.30;;;17.50;99.90;;;;;;4844022;29;20591;-89
2023/07/24 05:31:18;;;;;;;6.70;6.03;;;17.60;99.90;;;;;;4827369;29;20330;-89
2023/07/24 05:33:43;;;;;;;12.90;6.27;;;17.80;99.90;;;;;;4843561;29;20472;-89
2023/07/24 05:36:09;;;;;;;6.00;5.40;;;17.90;99.90;;;;;;4827447;29;20216;-89
2023/07/24 05:38:35;;;;;;;9.30;6.50;;;17.90;99.90;;;;;;4844329;29;20275;-89
2023/07/24 05:41:03;;;;;;;8.87;6.07;;;18.00;99.90;;;;;;4827483;29;20209;-89
2023/07/24 05:43:30;;;;;;;7.23;5.17;;;18.20;99.90;;;;;;4827956;29;20185;-90
2023/07/24 05:45:57;;;;;;;10.37;6.50;;;18.20;99.90;;;;;;4827272;29;20430;-89
2023/07/24 05:48:23;;;;;;;11.50;5.33;;;18.20;99.90;;;;;;4827650;29;20949;-89
2023/07/24 05:50:49;;;;;;;15.63;6.30;;;18.20;99.90;;;;;;4827202;29;20426;-90
2023/07/24 05:53:16;;;;;;;7.00;4.80;;;18.30;99.90;;;;;;4827528;29;20415;-90
2023/07/24 05:55:42;;;;;;;8.40;5.37;;;18.40;99.90;;;;;;4827704;29;20816;-91
2023/07/24 05:58:08;;;;;;;6.90;5.33;;;18.50;99.90;;;;;;4843747;29;20442;-91
2023/07/24 06:00:36;;;;;;;5.50;4.57;;;18.60;99.90;;;;;;4827708;29;20901;-91
2023/07/24 06:03:05;;;;;;;5.73;3.90;;;18.70;99.90;;;;;;4843815;29;20452;-91
2023/07/24 06:05:31;;;;;;;7.60;4.57;;;18.70;99.90;;;;;;4844867;29;20425;-92
2023/07/24 06:07:56;;;;;;;4.80;4.13;;;18.80;99.90;;;;;;4844418;29;20421;-91
2023/07/24 06:10:22;;;;;;;5.40;4.00;;;18.80;99.90;;;;;;4812093;29;20188;-93
2023/07/24 06:12:50;;;;;;;7.30;4.60;;;18.90;99.90;;;;;;4843646;29;20274;-92
2023/07/24 06:15:18;;;;;;;5.23;3.93;;;18.90;99.90;;;;;;4827029;29;20594;-92
2023/07/24 06:17:53;;;;;;;7.27;3.90;;;19.00;99.90;;;;;;4828190;29;20503;-92
2023/07/24 06:23:57;;;;;;;5.33;3.70;;;19.10;99.90;;;;;;4843526;29;20460;-92
2023/07/24 06:26:23;;;;;;;3.67;3.37;;;19.10;99.90;;;;;;4844073;29;20429;-92
2023/07/24 06:28:48;;;;;;;5.63;3.40;;;19.10;99.90;;;;;;4829770;29;20482;-91
2023/07/24 06:31:14;;;;;;;3.00;2.60;;;19.10;99.90;;;;;;4827847;29;20237;-91
2023/07/24 06:33:40;;;;;;;5.13;3.53;;;19.10;99.90;;;;;;4828761;29;20187;-91
2023/07/24 06:36:10;;;;;;;4.00;3.33;;;19.10;99.90;;;;;;4827705;29;20210;-91
2023/07/24 06:38:36;;;;;;;5.53;3.40;;;19.10;99.90;;;;;;4832035;29;20276;-92
2023/07/24 06:41:04;;;;;;;4.07;3.27;;;19.10;99.90;;;;;;4834155;29;20466;-90
2023/07/24 06:43:30;;;;;;;5.13;2.93;;;19.10;99.90;;;;;;4826745;29;20631;-89
2023/07/24 06:45:55;;;;;;;5.70;3.37;;;19.10;99.90;;;;;;4827988;29;20408;-89
2023/07/24 06:48:21;;;;;;;3.10;2.90;;;19.10;99.90;;;;;;4827353;29;20185;-91
2023/07/24 06:50:47;;;;;;;3.67;3.10;;;19.20;99.90;;;;;;4827532;29;20185;-90
2023/07/24 06:53:12;;;;;;;3.57;3.00;;;19.30;99.90;;;;;;4828265;29;20189;-90
2023/07/24 06:55:38;;;;;;;4.17;3.03;;;19.30;99.90;;;;;;4827030;29;20188;-89
2023/07/24 06:58:03;;;;;;;3.00;2.67;;;19.40;99.90;;;;;;4827156;29;20186;-90
2023/07/24 07:00:29;;;;;;;3.23;2.93;;;19.50;99.90;;;;;;4827986;29;20544;-90
2023/07/24 07:02:55;;;;;;;5.40;2.93;;;19.50;99.90;;;;;;4827204;29;20669;-93
2023/07/24 07:05:20;;;;;;;4.73;2.90;;;19.50;99.90;;;;;;4827461;29;20186;-91
2023/07/24 07:07:46;;;;;;;2.77;2.20;;;19.60;99.90;;;;;;4812157;29;20607;-90
2023/07/24 07:10:11;;;;;;;3.50;3.00;;;19.60;99.90;;;;;;4827871;29;20209;-90
2023/07/24 07:12:37;;;;;;;4.00;3.27;;;19.60;99.90;;;;;;4827109;29;20238;-91
2023/07/24 07:15:03;;;;;;;3.40;2.90;;;19.60;99.90;;;;;;4828238;29;20193;-91
2023/07/24 07:17:28;;;;;;;5.87;3.07;;;19.60;99.90;;;;;;4827873;29;20173;-90
2023/07/24 07:19:56;;;;;;;3.07;2.77;;;19.60;99.90;;;;;;4827924;29;20434;-90
2023/07/24 07:22:22;;;;;;;4.13;3.07;;;19.60;99.90;;;;;;4827682;29;20694;-90
2023/07/24 07:24:47;;;;;;;4.13;3.30;;;19.60;99.90;;;;;;4811571;29;20482;-91
2023/07/24 07:27:17;;;;;;;6.77;3.53;;;19.60;99.90;;;;;;4827679;29;20188;-88
2023/07/24 07:29:43;;;;;;;5.73;3.13;;;19.70;99.90;;;;;;4828044;29;20588;-90
2023/07/24 07:32:09;;;;;;;4.93;3.27;;;19.80;99.90;;;;;;4827413;29;20470;-90
2023/07/24 07:34:35;;;;;;;6.60;3.87;;;19.90;99.90;;;;;;4826903;29;21000;-90
2023/07/24 07:37:01;;;;;;;5.23;3.20;;;20.00;99.90;;;;;;4826787;29;20181;-90
2023/07/24 07:39:27;;;;;;;11.50;4.10;;;20.10;99.90;;;;;;4826356;29;20751;-90
2023/07/24 07:41:52;;;;;;;4.90;3.93;;;20.30;99.90;;;;;;4827595;29;20214;-91
2023/07/24 07:44:18;;;;;;;3.73;2.93;;;20.30;99.90;;;;;;4827602;29;20185;-92
2023/07/24 07:46:44;;;;;;;5.97;3.80;;;20.40;99.90;;;;;;4825940;29;20322;-90
2023/07/24 07:49:09;;;;;;;4.20;3.00;;;20.40;99.90;;;;;;4827535;29;20192;-90
2023/07/24 07:51:35;;;;;;;4.40;3.60;;;20.40;99.90;;;;;;4827760;29;20190;-90
2023/07/24 07:54:00;;;;;;;4.33;2.90;;;20.50;99.90;;;;;;4826656;29;20182;-90
2023/07/24 07:56:38;;;;;;;6.23;3.53;;;20.50;99.90;;;;;;4827340;29;20260;-90
2023/07/24 07:59:04;;;;;;;5.57;3.30;;;20.60;99.90;;;;;;4811938;29;20222;-91
2023/07/24 08:01:30;;;;;;;6.30;3.70;;;20.70;99.90;;;;;;4827340;29;20478;-92
2023/07/24 08:03:56;;;;;;;4.73;3.60;;;20.80;99.90;;;;;;4827780;29;20170;-91
2023/07/24 08:06:45;;;;;;;5.43;3.67;;;20.90;99.90;;;;;;4835791;29;20912;-92
2023/07/24 08:09:11;;;;;;;5.50;3.47;;;21.00;99.90;;;;;;4827246;29;20265;-92
2023/07/24 08:11:36;;;;;;;4.40;3.70;;;21.00;99.90;;;;;;4827581;29;20455;-91
2023/07/24 08:14:03;;;;;;;5.00;3.57;;;21.00;99.90;;;;;;4826228;29;20654;-91
2023/07/24 08:16:32;;;;;;;3.40;3.10;;;20.90;99.90;;;;;;4825825;29;20181;-91
2023/07/24 08:18:57;;;;;;;4.40;3.27;;;20.90;99.90;;;;;;4826326;29;20966;-92
2023/07/24 08:21:25;;;;;;;3.23;2.90;;;21.00;99.90;;;;;;4827156;29;20449;-91
2023/07/24 08:23:53;;;;;;;4.43;3.33;;;21.00;99.90;;;;;;4827065;29;20218;-91
2023/07/24 08:26:18;;;;;;;3.50;3.17;;;21.10;99.90;;;;;;4827686;29;20382;-91
2023/07/24 08:28:44;;;;;;;5.37;3.40;;;21.20;99.90;;;;;;4825746;29;20430;-92
2023/07/24 08:31:11;;;;;;;3.50;2.80;;;21.40;99.90;;;;;;4825407;29;20782;-91
2023/07/24 08:33:36;;;;;;;3.70;3.10;;;21.30;99.90;;;;;;4826022;29;20185;-91
2023/07/24 08:36:07;;;;;;;3.50;3.20;;;21.30;99.90;;;;;;4827198;29;20421;-91
2023/07/24 08:38:34;;;;;;;4.87;3.10;;;21.40;99.90;;;;;;4826412;29;20189;-92
2023/07/24 08:41:13;;;;;;;5.37;3.10;;;21.60;99.90;;;;;;4825681;29;20477;-91
2023/07/24 08:43:42;;;;;;;3.57;3.13;;;21.60;99.90;;;;;;4829588;29;20418;-91
2023/07/24 08:46:09;;;;;;;3.30;2.93;;;21.60;99.90;;;;;;4826033;29;20493;-91
2023/07/24 08:48:39;;;;;;;3.37;2.60;;;21.50;99.90;;;;;;4825419;29;20412;-91
2023/07/24 08:51:12;;;;;;;3.60;3.20;;;21.40;99.90;;;;;;4825425;29;20506;-91
2023/07/24 08:53:45;;;;;;;3.43;2.40;;;21.30;99.90;;;;;;4826457;29;20435;-91
2023/07/24 08:56:12;;;;;;;3.90;2.53;;;21.40;99.90;;;;;;4825442;29;20500;-91
2023/07/24 08:58:41;;;;;;;2.83;2.43;;;21.40;99.90;;;;;;4826005;29;20464;-91
2023/07/24 09:01:07;;;;;;;3.43;2.40;;;21.30;99.90;;;;;;4826544;29;20845;-91
2023/07/24 09:03:33;;;;;;;2.63;2.10;;;21.40;99.90;;;;;;4826733;29;20780;-93
2023/07/24 09:06:09;;;;;;;4.50;2.87;;;21.50;99.90;;;;;;4829712;29;20434;-91
2023/07/24 09:08:42;;;;;;;3.37;2.43;;;21.90;99.90;;;;;;4826140;29;20486;-93
2023/07/24 09:11:09;;;;;;;3.30;2.87;;;22.20;99.90;;;;;;4827152;29;20427;-91
2023/07/24 09:13:37;;;;;;;7.17;3.10;;;22.10;99.90;;;;;;4826194;29;20434;-92
2023/07/24 09:16:03;;;;;;;6.13;2.83;;;22.10;99.90;;;;;;4826657;29;20401;-92
2023/07/24 09:18:44;;;;;;;3.03;2.70;;;22.20;99.90;;;;;;4811054;29;20434;-91
2023/07/24 09:21:12;;;;;;;3.10;2.80;;;22.00;99.90;;;;;;4826544;29;20241;-91
2023/07/24 09:23:43;;;;;;;3.43;3.13;;;21.90;99.90;;;;;;4827351;29;20468;-91
2023/07/24 09:26:09;;;;;;;5.10;2.87;;;22.00;99.90;;;;;;4827854;29;20490;-91
2023/07/24 09:28:40;;;;;;;5.60;2.53;;;22.20;99.90;;;;;;4826392;29;20431;-92
2023/07/24 09:31:06;;;;;;;3.93;2.80;;;22.30;99.90;;;;;;4826965;29;20322;-92
2023/07/24 09:33:37;;;;;;;3.20;2.87;;;22.40;99.90;;;;;;4826192;29;20465;-91
2023/07/24 09:36:08;;;;;;;3.90;2.60;;;22.50;99.90;;;;;;4826439;29;20217;-91
2023/07/24 09:38:34;;;;;;;4.70;3.00;;;22.60;99.90;;;;;;4826843;29;20416;-91
2023/07/24 09:41:02;;;;;;;3.23;2.57;;;22.70;99.90;;;;;;4831295;29;20835;-91
2023/07/24 09:43:29;;;;;;;3.13;2.77;;;22.80;99.90;;;;;;4829539;29;20406;-92
2023/07/24 09:45:56;;;;;;;3.83;2.70;;;23.00;99.90;;;;;;4828519;29;20454;-91
2023/07/24 09:48:25;;;;;;;3.20;2.90;;;23.50;99.90;;;;;;4826410;29;20466;-91
2023/07/24 09:50:56;;;;;;;4.33;2.57;;;23.60;99.90;;;;;;4826657;29;20431;-91
2023/07/24 09:53:51;;;;;;;3.10;2.30;;;23.30;99.90;;;;;;4825969;29;20465;-91
2023/07/24 09:56:20;;;;;;;3.70;2.60;;;23.10;99.90;;;;;;4826914;29;20435;-91
2023/07/24 09:58:49;;;;;;;5.30;2.73;;;23.00;99.90;;;;;;4826807;29;20442;-92
2023/07/24 10:01:18;;;;;;;3.10;2.40;;;23.10;99.90;;;;;;4827355;29;20921;-92
2023/07/24 10:03:50;;;;;;;3.43;2.60;;;23.20;99.90;;;;;;4811481;29;20401;-92
2023/07/24 10:06:16;;;;;;;3.60;2.40;;;23.30;99.90;;;;;;4826969;29;20855;-91
2023/07/24 10:08:45;;;;;;;2.87;2.33;;;23.20;99.90;;;;;;4828401;29;20513;-92
2023/07/24 10:11:12;;;;;;;3.90;2.57;;;23.30;99.90;;;;;;4828116;29;20434;-91
2023/07/24 10:13:38;;;;;;;3.33;2.47;;;23.30;99.90;;;;;;4825471;29;20431;-91
2023/07/24 10:16:06;;;;;;;3.80;2.50;;;23.40;99.90;;;;;;4823931;29;20758;-90
2023/07/24 10:18:33;;;;;;;2.40;1.93;;;23.20;99.90;;;;;;4824279;29;20430;-91
2023/07/24 10:21:03;;;;;;;2.93;2.63;;;23.70;99.90;;;;;;4826075;29;20469;-92
2023/07/24 10:23:29;;;;;;;3.10;2.13;;;24.00;99.90;;;;;;4825117;29;20533;-92
2023/07/24 10:25:54;;;;;;;2.27;1.97;;;24.40;99.90;;;;;;4824982;29;20454;-93
2023/07/24 10:28:38;;;;;;;4.17;2.20;;;24.50;99.90;;;;;;4824812;29;20318;-93
2023/07/24 10:31:08;;;;;;;3.20;2.27;;;24.20;99.90;;;;;;4824946;29;20233;-94
2023/07/24 10:33:45;;;;;;;3.03;2.00;;;24.40;99.90;;;;;;4825649;29;20423;-93
2023/07/24 10:36:13;;;;;;;3.50;2.63;;;23.90;99.90;;;;;;4825955;29;20425;-91
2023/07/24 10:38:41;;;;;;;2.50;2.30;;;24.30;99.90;;;;;;4825673;29;20462;-92
2023/07/24 10:41:09;;;;;;;3.20;2.90;;;24.50;99.90;;;;;;4830122;29;20474;-91
2023/07/24 10:43:47;;;;;;;2.73;2.47;;;24.50;99.90;;;;;;4830242;29;20422;-92
2023/07/24 10:46:14;;;;;;;2.73;2.30;;;24.40;99.90;;;;;;4823982;29;20445;-91
2023/07/24 10:48:47;;;;;;;3.00;2.50;;;24.10;99.90;;;;;;4823968;29;20514;-92
2023/07/24 10:51:16;;;;;;;5.20;2.83;;;24.20;99.90;;;;;;4825376;29;20526;-91
2023/07/24 10:53:46;;;;;;;2.70;2.17;;;24.40;99.90;;;;;;4826388;29;20419;-91
2023/07/24 10:56:15;;;;;;;2.60;2.30;;;24.30;99.90;;;;;;4824817;29;20435;-91
2023/07/24 10:58:43;;;;;;;4.20;2.57;;;24.50;99.90;;;;;;4823696;29;20471;-91
2023/07/24 11:01:10;;;;;;;3.20;2.40;;;24.40;99.90;;;;;;4823705;29;20482;-92
2023/07/24 11:03:41;;;;;;;2.70;2.50;;;24.70;99.90;;;;;;4824660;29;20436;-92
2023/07/24 11:06:16;;;;;;;2.93;2.50;;;25.00;99.90;;;;;;4825080;29;20438;-91
2023/07/24 11:08:42;;;;;;;2.87;2.67;;;25.30;99.90;;;;;;4823548;29;20444;-89
2023/07/24 11:11:08;;;;;;;2.70;2.50;;;25.00;99.90;;;;;;4823025;29;20430;-89
2023/07/24 11:13:34;;;;;;;4.27;3.57;;;24.70;99.90;;;;;;4822766;29;20429;-89
2023/07/24 11:16:07;;;;;;;4.10;3.00;;;24.50;99.90;;;;;;4826542;29;20951;-87
2023/07/24 11:18:43;;;;;;;3.30;2.57;;;23.90;99.90;;;;;;4826852;29;20210;-88
2023/07/24 11:21:09;;;;;;;3.53;2.87;;;23.30;99.90;;;;;;4826560;29;20803;-88
2023/07/24 11:23:35;;;;;;;2.87;2.67;;;23.10;99.90;;;;;;4827568;29;20426;-88
2023/07/24 11:26:05;;;;;;;4.47;3.07;;;22.40;99.90;;;;;;4826072;29;20511;-88
2023/07/24 11:28:39;;;;;;;12.77;3.37;;;21.70;99.90;;;;;;4827733;29;20475;-87
2023/07/24 11:31:05;;;;;;;9.13;2.73;;;19.50;99.90;;;;;;4827266;29;20449;-86
2023/07/24 11:33:31;;;;;;;1.57;1.10;;;18.20;99.90;;;;;;4828168;29;20427;-90
2023/07/24 11:35:57;;;;;;;3.50;2.00;;;17.90;99.90;;;;;;4810732;29;20182;-89
2023/07/24 11:38:23;;;;;;;3.07;1.50;;;18.10;99.90;;;;;;4826901;29;20438;-89
2023/07/24 11:40:49;;;;;;;4.90;1.77;;;18.20;99.90;;;;;;4825423;29;20474;-87
2023/07/24 11:43:22;;;;;;;2.10;1.70;;;18.40;99.90;;;;;;4826452;29;20401;-86
2023/07/24 11:45:53;;;;;;;5.80;1.40;;;19.10;99.90;;;;;;4826597;29;20421;-83
2023/07/24 11:48:23;;;;;;;2.30;1.40;;;19.90;99.90;;;;;;4827364;29;20477;-84
2023/07/24 11:50:56;;;;;;;3.60;1.47;;;20.20;99.90;;;;;;4826884;29;20418;-84
2023/07/24 11:53:31;;;;;;;1.53;1.43;;;20.70;99.90;;;;;;4826322;29;20513;-84
2023/07/24 11:56:03;;;;;;;2.20;1.50;;;21.00;99.90;;;;;;4825210;29;20426;-86
2023/07/24 11:58:29;;;;;;;4.37;1.70;;;20.70;99.90;;;;;;4825570;29;20767;-88
2023/07/24 12:00:56;;;;;;;2.97;2.00;;;20.40;99.90;;;;;;4826504;29;20452;-85
2023/07/24 12:03:24;;;;;;;3.33;2.20;;;20.10;99.90;;;;;;4826558;29;20442;-84
2023/07/24 12:05:50;;;;;;;3.70;2.77;;;20.00;99.90;;;;;;4828024;29;20990;-82
2023/07/24 12:08:18;;;;;;;6.73;3.53;;;19.70;99.90;;;;;;4826863;29;20394;-86
2023/07/24 12:10:43;;;;;;;3.83;3.27;;;19.30;99.90;;;;;;4826359;29;20413;-85
2023/07/24 12:13:09;;;;;;;7.10;3.70;;;19.00;99.90;;;;;;4826697;29;20761;-84
2023/07/24 12:15:35;;;;;;;8.53;3.50;;;18.90;99.90;;;;;;4826552;29;20184;-83
2023/07/24 12:18:02;;;;;;;6.40;4.37;;;18.90;99.90;;;;;;4826177;29;20189;-85
2023/07/24 12:20:28;;;;;;;5.13;3.80;;;18.90;99.90;;;;;;4827012;29;20534;-82
2023/07/24 12:22:54;;;;;;;3.97;3.17;;;19.10;99.90;;;;;;4825984;29;20773;-82
2023/07/24 12:25:20;;;;;;;5.07;3.37;;;19.10;99.90;;;;;;4827494;29;20425;-87
2023/07/24 12:27:46;;;;;;;3.97;3.60;;;19.50;99.90;;;;;;4825515;29;20238;-86
2023/07/24 12:30:12;;;;;;;3.83;2.90;;;19.80;99.90;;;;;;4826714;29;20201;-85
2023/07/24 12:32:38;;;;;;;3.97;2.83;;;20.10;99.90;;;;;;4824894;29;21010;-84
2023/07/24 12:35:04;;;;;;;3.97;2.70;;;20.80;99.90;;;;;;4826049;29;20506;-84
2023/07/24 12:37:30;;;;;;;3.23;1.90;;;21.30;99.90;;;;;;4825012;29;20284;-84
2023/07/24 12:39:56;;;;;;;5.90;2.50;;;21.60;99.90;;;;;;4825867;29;20920;-85
2023/07/24 12:42:21;;;;;;;2.13;1.70;;;22.00;99.90;;;;;;4826401;29;20508;-86
2023/07/24 12:44:47;;;;;;;2.13;2.00;;;21.90;99.90;;;;;;4824771;29;20264;-86
2023/07/24 12:47:13;;;;;;;1.63;1.53;;;21.70;99.90;;;;;;4826310;29;20206;-85
2023/07/24 12:49:38;;;;;;;1.90;1.40;;;21.20;99.90;;;;;;4826281;29;20189;-86
2023/07/24 12:52:05;;;;;;;2.80;1.67;;;20.90;99.90;;;;;;4825875;29;20285;-86
2023/07/24 12:54:32;;;;;;;2.50;1.80;;;20.70;99.90;;;;;;4826158;29;20258;-86
2023/07/24 12:56:57;;;;;;;1.27;1.17;;;20.50;99.90;;;;;;4826123;29;20898;-87
2023/07/24 12:59:23;;;;;;;1.77;1.53;;;20.30;99.90;;;;;;4826358;29;20419;-86
2023/07/24 13:01:49;;;;;;;2.23;1.30;;;20.70;99.90;;;;;;4825911;29;20427;-86